Aérodrome :
LOGIN :

S'inscrire | Disclaimer

   EN    FR    IT 

 










Légende :    VFR   VFR Marginal   IFR   IFR Intensif   IFR Très Intensif
Visi : 
Plafond : 
>= 8 km
>= 3000ft
5 à 8 km
1000 à 3000 ft
1500m à 5 km
500 à 1000 ft
800 à 1500m
200 à 500 ft
< 800m
< 200 ft
Symboles :   Orages  Brouillard  Fortes neiges  Fortes précipitations  Vent > 20 kt
SIGMETs :   Divers  Orages  Givrage  Turbulence  Onde Orograph.  Cendres Volcan.






- Altitude de l'aérodrome : 313 ft
- Code IATA : LEH


LFOH - Le Havre Octeville

DERNIER METAR :
  • 240130Z AUTO 09005KT 4200 BR OVC004 02/01 Q1024

METARs EXPIRÉS :
  • 240100Z AUTO 09005KT 060V120 4100 BR OVC004 02/01 Q1024
  • 240030Z AUTO 08006KT 3900 BR OVC003 02/01 Q1024
  • 240000Z AUTO 11005KT 070V140 3500 BR OVC003 02/02 Q1025
  • 232330Z AUTO 14005KT 3200 BR OVC002 02/02 Q1025
  • 232300Z AUTO 11004KT 2900 BR OVC002 03/02 Q1025

TAF AMD TAF LFOH
Valide du 23 à 18h jusqu'au 24 à 12h UTC


231811Z 2318/2412 09008KT 4000 BR NSC
BECMG 2318/2320 OVC005
TEMPO 2320/2410 2000 BR OVC003
ATIS : +33 2 35 54 64 93



MET'MAP, la Météo Aéronautique d'un coup d'oeil ! - Copyright ORBIFLY Décembre 2007 - Disclaimer

ORBIFLY MET'MAP TEAM :

Programmation & Développement : Alexandra Zaïnal
Sur une idée originale de : Baudouin d'Aumeries
Assistance à la programmation : Marc-Olivier Méhu
Soutien technique & logistique : Manuel Goepfert

Contact : metmap@orbifly.com




SOURCES & CREDITS :

   NOAA